createdAt,value
2019-03-17T00:00:56.789Z,94687.69
2019-03-17T00:03:26.148Z,94690.95
2019-03-17T00:05:55.436Z,94699.05
2019-03-17T00:08:24.759Z,94687.84
2019-03-17T00:10:54.313Z,94688.61
2019-03-17T00:13:23.572Z,94686.67
2019-03-17T00:15:52.903Z,94686.67
2019-03-17T00:18:23.507Z,94680.38
2019-03-17T00:20:57.252Z,94686.60
2019-03-17T00:23:30.155Z,94683.44
2019-03-17T00:26:05.305Z,94678.23
2019-03-17T00:28:52.041Z,94682.83
2019-03-17T00:31:26.375Z,94678.58
2019-03-17T00:34:04.423Z,94680.67
2019-03-17T00:36:34.438Z,94677.27
2019-03-17T00:39:04.579Z,94677.75
2019-03-17T00:41:36.431Z,94685.53
2019-03-17T00:55:31.601Z,94677.86
2019-03-17T00:58:00.916Z,94678.57
2019-03-17T01:00:30.524Z,94675.73
2019-03-17T01:02:59.807Z,94678.10
2019-03-17T01:05:31.630Z,94678.26
2019-03-17T01:08:01.082Z,94662.47
2019-03-17T01:10:30.349Z,94660.06
2019-03-17T01:12:59.559Z,94655.77
2019-03-17T01:15:31.978Z,94657.03
2019-03-17T01:18:01.267Z,94654.62
2019-03-17T01:20:30.970Z,94643.25
2019-03-17T01:23:00.191Z,94645.73
2019-03-17T01:25:29.540Z,94637.89
2019-03-17T01:27:58.811Z,94644.94
2019-03-17T01:30:28.345Z,94638.24
2019-03-17T01:32:57.584Z,94637.20
2019-03-17T01:35:26.971Z,94632.36
2019-03-17T01:37:56.215Z,94634.22
2019-03-17T01:40:25.488Z,94636.69
2019-03-17T01:42:54.704Z,94643.03
2019-03-17T01:45:24.112Z,94631.09
2019-03-17T01:47:54.168Z,94634.34
2019-03-17T01:50:23.770Z,94630.98
2019-03-17T01:52:53.383Z,94637.27
2019-03-17T01:55:22.722Z,94625.11
2019-03-17T01:57:52.327Z,94629.08
2019-03-17T02:00:21.695Z,94625.53
2019-03-17T02:02:51.127Z,94626.73
2019-03-17T02:05:22.409Z,94615.89
2019-03-17T02:07:51.550Z,94605.51
2019-03-17T02:10:20.838Z,94600.87
2019-03-17T02:12:50.241Z,94608.00
2019-03-17T02:15:19.580Z,94600.73
2019-03-17T02:17:49.103Z,94598.98
2019-03-17T02:20:18.380Z,94609.63
2019-03-17T02:22:47.598Z,94602.73
2019-03-17T02:25:16.861Z,94601.44
2019-03-17T02:27:46.074Z,94600.55
2019-03-17T02:30:15.381Z,94592.13
2019-03-17T02:32:44.603Z,94595.88
2019-03-17T02:35:13.891Z,94590.45
2019-03-17T02:37:43.132Z,94588.00
2019-03-17T02:42:47.548Z,94587.55
2019-03-17T02:45:16.952Z,94588.85
2019-03-17T02:47:46.571Z,94590.45
2019-03-17T02:50:15.815Z,94585.35
2019-03-17T02:52:45.141Z,94584.99
2019-03-17T02:55:14.720Z,94586.79
2019-03-17T02:57:43.959Z,94585.22
2019-03-17T03:00:13.327Z,94586.22
2019-03-17T03:02:42.530Z,94583.52
2019-03-17T03:05:12.202Z,94585.66
2019-03-17T03:07:41.435Z,94588.53
2019-03-17T03:10:10.673Z,94588.48
2019-03-17T03:12:39.874Z,94592.91
2019-03-17T03:15:09.348Z,94585.61
2019-03-17T03:17:38.660Z,94587.18
2019-03-17T03:20:07.953Z,94584.19
2019-03-17T03:22:37.198Z,94580.72
2019-03-17T03:25:06.641Z,94579.28
2019-03-17T03:27:35.938Z,94574.60
2019-03-17T03:30:06.486Z,94573.89
2019-03-17T03:32:35.708Z,94577.28
2019-03-17T03:35:04.972Z,94573.47
2019-03-17T03:37:34.335Z,94578.97
2019-03-17T03:40:03.694Z,94568.96
2019-03-17T03:42:33.007Z,94560.09
2019-03-17T03:45:02.402Z,94576.11
2019-03-17T03:47:31.651Z,94561.85
2019-03-17T03:50:01.031Z,94565.73
2019-03-17T03:52:30.353Z,94566.55
2019-03-17T03:54:59.636Z,94562.86
2019-03-17T03:57:28.970Z,94566.39
2019-03-17T03:59:58.217Z,94564.48
2019-03-17T04:02:27.549Z,94557.33
2019-03-17T04:04:56.772Z,94562.84
2019-03-17T04:07:26.040Z,94564.39
2019-03-17T04:09:56.189Z,94556.34
2019-03-17T04:12:26.175Z,94556.84
2019-03-17T04:14:55.387Z,94558.33
2019-03-17T04:17:24.722Z,94555.56
2019-03-17T04:19:53.956Z,94553.19
2019-03-17T04:22:23.262Z,94551.53
2019-03-17T04:24:52.805Z,94555.28
2019-03-17T04:27:22.091Z,94553.98
2019-03-17T04:29:51.394Z,94555.70
2019-03-17T04:32:20.723Z,94560.98
2019-03-17T04:34:50.088Z,94553.05
2019-03-17T04:37:19.598Z,94554.55
2019-03-17T04:39:49.136Z,94554.41
2019-03-17T04:42:18.450Z,94555.36
2019-03-17T04:44:48.009Z,94555.22
2019-03-17T04:47:17.275Z,94546.84
2019-03-17T04:49:46.509Z,94548.95
2019-03-17T04:52:15.746Z,94545.39
2019-03-17T04:54:45.083Z,94549.36
2019-03-17T04:57:14.627Z,94553.84
2019-03-17T04:59:43.854Z,94548.89
2019-03-17T05:02:13.759Z,94550.33
2019-03-17T05:04:43.083Z,94541.05
2019-03-17T05:07:12.647Z,94546.47
2019-03-17T05:09:42.337Z,94543.88
2019-03-17T05:12:11.651Z,94538.63
2019-03-17T05:14:41.438Z,94539.54
2019-03-17T05:17:12.139Z,94529.80
2019-03-17T05:19:41.556Z,94524.38
2019-03-17T05:22:10.875Z,94525.14
2019-03-17T05:24:41.461Z,94525.43
2019-03-17T05:27:10.742Z,94518.97
2019-03-17T05:29:40.339Z,94519.25
2019-03-17T05:32:09.884Z,94517.49
2019-03-17T05:34:39.153Z,94518.50
2019-03-17T05:37:08.443Z,94506.17
2019-03-17T05:39:37.764Z,94512.78
2019-03-17T05:42:07.005Z,94506.39
2019-03-17T05:44:36.463Z,94514.80
2019-03-17T05:47:05.895Z,94514.40
2019-03-17T05:49:35.641Z,94513.39
2019-03-17T05:52:04.860Z,94512.70
2019-03-17T05:54:34.231Z,94513.81
2019-03-17T05:57:03.739Z,94512.98
2019-03-17T05:59:33.718Z,94512.25
2019-03-17T06:02:03.088Z,94513.43
2019-03-17T06:04:32.499Z,94502.64
2019-03-17T06:07:01.893Z,94504.03
2019-03-17T06:09:31.222Z,94509.06
2019-03-17T06:12:00.806Z,94505.19
2019-03-17T06:14:30.193Z,94504.37
2019-03-17T06:16:59.871Z,94498.48
2019-03-17T06:19:29.316Z,94488.82
2019-03-17T06:22:00.630Z,94488.98
2019-03-17T06:24:30.118Z,94483.18
2019-03-17T06:26:59.978Z,94489.02
2019-03-17T06:29:29.368Z,94490.30
2019-03-17T06:31:58.744Z,94487.25
2019-03-17T06:34:28.058Z,94498.83
2019-03-17T06:36:57.632Z,94503.40
2019-03-17T06:39:26.919Z,94502.87
2019-03-17T06:41:56.168Z,94505.51
2019-03-17T06:44:25.384Z,94506.58
2019-03-17T06:46:56.246Z,94500.20
2019-03-17T06:49:25.597Z,94503.78
2019-03-17T06:51:55.218Z,94493.80
2019-03-17T06:54:24.593Z,94502.10
2019-03-17T06:56:54.112Z,94492.63
2019-03-17T06:59:23.522Z,94494.16
2019-03-17T07:01:52.876Z,94484.28
2019-03-17T07:04:22.510Z,94489.83
2019-03-17T07:06:51.803Z,94485.23
2019-03-17T07:09:21.135Z,94482.57
2019-03-17T07:11:50.379Z,94498.70
2019-03-17T07:14:20.367Z,94499.23
2019-03-17T07:16:49.932Z,94492.84
2019-03-17T07:19:19.215Z,94497.65
2019-03-17T07:21:50.951Z,94495.01
2019-03-17T07:24:20.359Z,94497.63
2019-03-17T07:26:49.795Z,94498.02
2019-03-17T07:29:19.122Z,94497.45
2019-03-17T07:31:48.376Z,94492.00
2019-03-17T07:34:17.571Z,94493.80
2019-03-17T07:36:46.838Z,94501.80
2019-03-17T07:39:16.036Z,94495.68
2019-03-17T07:41:45.236Z,94490.19
2019-03-17T07:44:14.937Z,94484.16
2019-03-17T07:46:44.134Z,94487.30
2019-03-17T07:49:13.541Z,94481.94
2019-03-17T07:51:43.013Z,94481.00
2019-03-17T07:54:12.256Z,94478.14
2019-03-17T07:56:41.467Z,94473.42
2019-03-17T07:59:10.716Z,94467.77
2019-03-17T08:01:39.907Z,94472.18
2019-03-17T08:04:09.444Z,94459.12
2019-03-17T08:06:38.646Z,94476.10
2019-03-17T08:09:08.915Z,94470.55
2019-03-17T08:11:38.123Z,94476.77
2019-03-17T08:14:07.402Z,94479.84
2019-03-17T08:16:36.619Z,94481.44
2019-03-17T08:19:05.885Z,94479.11
2019-03-17T08:21:35.410Z,94480.22
2019-03-17T08:24:04.825Z,94480.81
2019-03-17T08:26:34.036Z,94480.11
2019-03-17T08:29:03.346Z,94474.69
2019-03-17T08:31:32.823Z,94481.04
2019-03-17T08:34:02.090Z,94475.53
2019-03-17T08:36:31.301Z,94476.04
2019-03-17T08:39:00.583Z,94470.53
2019-03-17T08:41:29.847Z,94470.17
2019-03-17T08:43:59.100Z,94471.05
2019-03-17T08:46:28.454Z,94462.50
2019-03-17T08:48:57.785Z,94465.98
2019-03-17T08:51:27.095Z,94455.75
2019-03-17T08:53:56.362Z,94460.11
2019-03-17T08:56:25.578Z,94459.69
2019-03-17T08:58:54.848Z,94453.74
2019-03-17T09:01:24.064Z,94461.06
2019-03-17T09:03:53.457Z,94457.34
2019-03-17T09:06:22.665Z,94454.32
2019-03-17T09:08:52.230Z,94452.56
2019-03-17T09:11:21.737Z,94459.98
2019-03-17T09:13:50.934Z,94450.03
2019-03-17T09:16:20.504Z,94456.04
2019-03-17T09:18:49.734Z,94446.01
2019-03-17T09:21:19.003Z,94436.87
2019-03-17T09:23:48.214Z,94442.45
2019-03-17T09:26:17.507Z,94457.36
2019-03-17T09:28:46.768Z,94453.43
2019-03-17T09:31:15.964Z,94436.77
2019-03-17T09:33:45.243Z,94453.13
2019-03-17T09:36:14.862Z,94431.17
2019-03-17T09:38:47.438Z,94431.16
2019-03-17T09:41:15.381Z,94437.50
2019-03-17T09:43:44.660Z,94440.00
2019-03-17T09:46:13.954Z,94435.15
2019-03-17T09:48:43.346Z,94435.77
2019-03-17T09:51:14.711Z,94433.45
2019-03-17T09:53:43.927Z,94421.37
2019-03-17T09:56:13.192Z,94412.84
2019-03-17T09:58:45.452Z,94421.84
2019-03-17T10:01:13.416Z,94422.72
2019-03-17T10:03:44.717Z,94423.86
2019-03-17T10:06:14.461Z,94414.37
2019-03-17T10:08:46.252Z,94414.02
2019-03-17T10:11:15.609Z,94400.78
2019-03-17T10:13:44.960Z,94391.87
2019-03-17T10:16:14.166Z,94400.16
2019-03-17T10:18:43.547Z,94400.16
2019-03-17T10:21:12.756Z,94399.95
2019-03-17T10:23:42.903Z,94394.34
2019-03-17T10:26:12.195Z,94402.45
2019-03-17T10:28:41.784Z,94391.94
2019-03-17T10:31:11.132Z,94382.58
2019-03-17T10:33:41.876Z,94389.88
2019-03-17T10:36:11.530Z,94383.29
2019-03-17T10:38:42.818Z,94383.13
2019-03-17T10:41:12.081Z,94381.48
2019-03-17T10:43:41.366Z,94388.58
2019-03-17T10:46:10.630Z,94380.42
2019-03-17T10:48:42.917Z,94380.83
2019-03-17T10:51:12.322Z,94372.73
2019-03-17T10:53:41.594Z,94367.31
2019-03-17T10:56:10.865Z,94372.12
2019-03-17T10:58:40.367Z,94367.23
2019-03-17T11:01:10.141Z,94359.10
2019-03-17T11:03:39.383Z,94365.67
2019-03-17T11:06:40.997Z,94358.61
2019-03-17T11:09:10.370Z,94358.61
2019-03-17T11:11:39.970Z,94357.23
2019-03-17T11:14:09.521Z,94361.13
2019-03-17T11:16:41.092Z,94360.36
2019-03-17T11:19:10.004Z,94360.36
2019-03-17T11:21:39.247Z,94358.44
2019-03-17T11:24:08.814Z,94354.48
2019-03-17T11:26:38.291Z,94367.75
2019-03-17T11:29:08.974Z,94359.13
2019-03-17T11:31:38.599Z,94342.94
2019-03-17T11:34:08.081Z,94342.94
2019-03-17T11:36:37.777Z,94350.92
2019-03-17T11:39:07.953Z,94345.44
2019-03-17T11:41:37.352Z,94359.23
2019-03-17T11:44:06.600Z,94331.03
2019-03-17T11:46:35.849Z,94331.03
2019-03-17T11:49:05.102Z,94343.39
2019-03-17T11:51:34.666Z,94337.23
2019-03-17T11:54:04.308Z,94335.47
2019-03-17T11:56:33.953Z,94331.33
2019-03-17T11:59:03.254Z,94336.42
2019-03-17T12:01:32.582Z,94329.27
2019-03-17T12:04:01.841Z,94322.16
2019-03-17T12:06:31.221Z,94315.91
2019-03-17T12:09:00.467Z,94309.53
2019-03-17T12:11:29.655Z,94303.28
2019-03-17T12:14:00.334Z,94301.45
2019-03-17T12:16:31.862Z,94301.45
2019-03-17T12:19:01.179Z,94300.78
2019-03-17T12:21:30.700Z,94302.16
2019-03-17T12:24:02.583Z,94313.38
2019-03-17T12:26:31.819Z,94292.74
2019-03-17T12:29:01.184Z,94292.74
2019-03-17T12:31:30.668Z,94292.08
2019-03-17T12:34:02.969Z,94282.09
2019-03-17T12:36:34.715Z,94284.87
2019-03-17T12:39:06.138Z,94281.02
2019-03-17T12:41:38.596Z,94283.44
2019-03-17T12:44:07.784Z,94277.31
2019-03-17T12:46:38.582Z,94278.30
2019-03-17T12:49:07.777Z,94279.50
2019-03-17T12:51:38.815Z,94272.38
2019-03-17T12:54:09.417Z,94273.48
2019-03-17T12:56:38.769Z,94275.20
2019-03-17T12:59:13.430Z,94261.66
2019-03-17T13:01:42.800Z,94249.81
2019-03-17T13:04:11.977Z,94269.80
2019-03-17T13:06:43.398Z,94261.84
2019-03-17T13:09:32.149Z,94263.27
2019-03-17T13:12:04.232Z,94253.16
2019-03-17T13:14:33.499Z,94264.34
2019-03-17T13:17:03.160Z,94255.77
2019-03-17T13:19:32.612Z,94253.56
2019-03-17T13:22:04.856Z,94243.77
2019-03-17T13:24:55.839Z,94254.08
2019-03-17T13:27:25.349Z,94241.27
2019-03-17T13:29:54.925Z,94246.79
2019-03-17T13:32:24.176Z,94250.34
2019-03-17T13:34:53.683Z,94250.12
2019-03-17T13:37:23.005Z,94244.69
2019-03-17T13:39:52.189Z,94247.32
2019-03-17T13:42:22.976Z,94251.18
2019-03-17T13:44:52.239Z,94253.14
2019-03-17T13:47:21.914Z,94242.79
2019-03-17T13:49:51.188Z,94246.12
2019-03-17T13:52:20.438Z,94252.76
2019-03-17T13:54:49.647Z,94242.14
2019-03-17T13:57:21.203Z,94240.44
2019-03-17T13:59:50.612Z,94237.09
2019-03-17T14:02:19.868Z,94245.38
2019-03-17T14:04:49.087Z,94255.80
2019-03-17T14:07:18.620Z,94252.50
2019-03-17T14:09:47.818Z,94250.55
2019-03-17T14:12:17.345Z,94281.98
2019-03-17T14:14:47.044Z,94259.27
2019-03-17T14:17:16.280Z,94251.17
2019-03-17T14:19:45.495Z,94258.61
2019-03-17T14:22:14.748Z,94224.95
2019-03-17T14:24:44.013Z,94248.58
2019-03-17T14:27:13.595Z,94268.20
2019-03-17T14:29:42.923Z,94242.75
2019-03-17T14:32:12.469Z,94260.50
2019-03-17T14:34:41.773Z,94260.50
2019-03-17T14:37:14.080Z,94264.59
2019-03-17T14:39:43.792Z,94261.17
2019-03-17T14:42:13.171Z,94261.17
2019-03-17T14:44:42.501Z,94233.53
2019-03-17T14:47:11.696Z,94252.72
2019-03-17T14:49:41.172Z,94229.34
2019-03-17T14:52:10.428Z,94260.23
2019-03-17T14:54:39.895Z,94260.23
2019-03-17T14:57:09.457Z,94238.14
2019-03-17T14:59:38.963Z,94263.69
2019-03-17T15:02:08.213Z,94263.69
2019-03-17T15:04:37.399Z,94275.42
2019-03-17T15:07:06.648Z,94275.42
2019-03-17T15:09:36.124Z,94276.66
2019-03-17T15:12:05.368Z,94253.59
2019-03-17T15:14:34.855Z,94267.63
2019-03-17T15:17:04.120Z,94273.39
2019-03-17T15:19:33.314Z,94272.62
2019-03-17T15:22:02.797Z,94265.11
2019-03-17T15:24:31.996Z,94280.12
2019-03-17T15:27:01.285Z,94269.59
2019-03-17T15:29:30.573Z,94275.45
2019-03-17T15:31:59.862Z,94281.73
2019-03-17T15:34:29.090Z,94289.88
2019-03-17T15:36:58.615Z,94292.97
2019-03-17T15:39:28.090Z,94292.58
2019-03-17T15:41:57.348Z,94298.97
2019-03-17T15:44:26.852Z,94310.41
2019-03-17T15:46:56.692Z,94307.34
2019-03-17T15:49:26.169Z,94324.23
2019-03-17T15:51:55.410Z,94323.03
2019-03-17T15:54:24.603Z,94320.59
2019-03-17T15:56:53.829Z,94338.02
2019-03-17T15:59:23.187Z,94339.58
2019-03-17T16:01:52.379Z,94346.05
2019-03-17T16:04:21.641Z,94338.19
2019-03-17T16:06:50.824Z,94345.02
2019-03-17T16:09:20.065Z,94343.84
2019-03-17T16:11:49.535Z,94336.30
2019-03-17T16:14:19.216Z,94352.42
2019-03-17T16:16:48.379Z,94350.94
2019-03-17T16:19:17.712Z,94344.70
2019-03-17T16:21:46.921Z,94344.84
2019-03-17T16:24:16.180Z,94351.84
2019-03-17T16:26:45.659Z,94347.38
2019-03-17T16:29:14.995Z,94366.42
2019-03-17T16:31:49.168Z,94357.89
2019-03-17T16:34:20.467Z,94351.40
2019-03-17T16:36:49.719Z,94359.48
2019-03-17T16:39:21.396Z,94362.30
2019-03-17T16:41:50.908Z,94352.40
2019-03-17T16:44:20.846Z,94371.55
2019-03-17T16:46:50.266Z,94364.75
2019-03-17T16:49:21.863Z,94389.11
2019-03-17T16:51:53.947Z,94394.65
2019-03-17T16:54:23.419Z,94431.44
2019-03-17T16:56:53.314Z,94445.05
2019-03-17T16:59:23.991Z,94458.97
2019-03-17T17:01:57.653Z,94452.13
2019-03-17T17:04:26.965Z,94480.20
2019-03-17T17:06:56.720Z,94508.38
2019-03-17T17:09:29.148Z,94525.02
2019-03-17T17:11:58.501Z,94545.42
2019-03-17T17:14:27.857Z,94574.32
2019-03-17T17:16:58.195Z,94596.34
2019-03-17T17:19:27.720Z,94611.28
2019-03-17T17:21:59.636Z,94621.26
2019-03-17T17:24:29.095Z,94642.20
2019-03-17T17:27:23.576Z,94652.41
2019-03-17T17:29:53.034Z,94649.98
2019-03-17T17:32:22.550Z,94664.73
2019-03-17T17:34:51.887Z,94671.99
2019-03-17T17:37:21.122Z,94686.52
2019-03-17T17:39:50.644Z,94692.11
2019-03-17T17:42:19.996Z,94701.17
2019-03-17T17:44:49.552Z,94706.74
2019-03-17T17:47:18.750Z,94722.09
2019-03-17T17:49:51.135Z,94727.63
2019-03-17T17:52:20.480Z,94744.55
2019-03-17T17:54:49.757Z,94749.23
2019-03-17T17:57:18.969Z,94743.89
2019-03-17T17:59:48.420Z,94764.80
2019-03-17T18:02:19.570Z,94763.66
2019-03-17T18:04:49.102Z,94777.09
2019-03-17T18:07:18.424Z,94784.94
2019-03-17T18:09:47.844Z,94796.69
2019-03-17T18:12:21.118Z,94788.70
2019-03-17T18:14:48.392Z,94804.18
2019-03-17T18:17:17.607Z,94811.86
2019-03-17T18:19:46.885Z,94828.83
2019-03-17T18:22:16.398Z,94829.06
2019-03-17T18:24:45.686Z,94834.08
2019-03-17T18:27:14.874Z,94840.30
2019-03-17T18:29:44.147Z,94854.72
2019-03-17T18:32:14.209Z,94867.50
2019-03-17T18:34:43.787Z,94866.41
2019-03-17T18:37:13.271Z,94883.59
2019-03-17T18:39:42.563Z,94887.67
2019-03-17T18:42:11.999Z,94877.23
2019-03-17T18:44:41.217Z,94904.84
2019-03-17T18:47:10.600Z,94902.67
2019-03-17T18:49:39.799Z,94927.66
2019-03-17T18:52:09.423Z,94928.55
2019-03-17T18:54:38.706Z,94937.52
2019-03-17T18:57:07.973Z,94927.98
2019-03-17T18:59:37.228Z,94942.59
2019-03-17T19:02:07.010Z,94950.98
2019-03-17T19:04:36.394Z,94951.55
2019-03-17T19:07:08.861Z,94973.59
2019-03-17T19:09:38.160Z,94976.87
2019-03-17T19:12:08.383Z,94974.58
2019-03-17T19:14:37.652Z,94980.20
2019-03-17T19:17:09.597Z,94987.21
2019-03-17T19:19:39.183Z,94982.06
2019-03-17T19:22:08.778Z,94996.98
2019-03-17T19:24:38.347Z,95002.24
2019-03-17T19:27:07.557Z,95007.74
2019-03-17T19:29:36.874Z,95010.13
2019-03-17T19:32:06.258Z,95007.91
2019-03-17T19:34:35.824Z,95013.95
2019-03-17T19:37:05.113Z,95035.84
2019-03-17T19:39:35.930Z,95037.23
2019-03-17T19:42:16.395Z,95032.84
2019-03-17T19:44:48.398Z,95050.41
2019-03-17T19:47:17.775Z,95047.09
2019-03-17T19:49:47.055Z,95058.06
2019-03-17T19:52:16.318Z,95061.18
2019-03-17T19:54:45.483Z,95061.05
2019-03-17T19:57:14.786Z,95080.46
2019-03-17T19:59:43.961Z,95072.66
2019-03-17T20:02:13.222Z,95080.13
2019-03-17T20:04:42.407Z,95082.06
2019-03-17T20:07:11.739Z,95078.77
2019-03-17T20:09:40.988Z,95085.68
2019-03-17T20:12:10.241Z,95084.31
2019-03-17T20:14:41.980Z,95091.42
2019-03-17T20:17:10.444Z,95101.42
2019-03-17T20:19:39.676Z,95101.70
2019-03-17T20:22:08.940Z,95107.49
2019-03-17T20:24:38.168Z,95104.00
2019-03-17T20:27:07.475Z,95119.13
2019-03-17T20:29:37.365Z,95109.93
2019-03-17T20:32:06.580Z,95103.01
2019-03-17T20:34:37.453Z,95119.38
2019-03-17T20:37:08.928Z,95117.25
2019-03-17T20:39:40.110Z,95118.74
2019-03-17T20:42:09.443Z,95118.02
2019-03-17T20:44:38.678Z,95122.61
2019-03-17T20:47:08.547Z,95122.31
2019-03-17T20:49:39.572Z,95131.25
2019-03-17T20:52:08.844Z,95133.09
2019-03-17T20:54:38.186Z,95136.27
2019-03-17T20:57:07.417Z,95134.05
2019-03-17T20:59:36.645Z,95127.84
2019-03-17T21:02:05.919Z,95112.18
2019-03-17T21:04:35.184Z,95133.90
2019-03-17T21:07:04.466Z,95141.88
2019-03-17T21:09:36.057Z,95138.34
2019-03-17T21:12:05.714Z,95139.77
2019-03-17T21:14:35.227Z,95133.55
2019-03-17T21:17:06.737Z,95149.00
2019-03-17T21:19:37.252Z,95156.27
2019-03-17T21:22:06.500Z,95164.08
2019-03-17T21:24:36.031Z,95173.91
2019-03-17T21:27:05.268Z,95181.33
2019-03-17T21:29:34.531Z,95176.29
2019-03-17T21:32:03.880Z,95177.59
2019-03-17T21:34:33.116Z,95165.38
2019-03-17T21:37:02.631Z,95188.92
2019-03-17T21:39:31.888Z,95182.29
2019-03-17T21:42:01.106Z,95175.51
2019-03-17T21:44:30.368Z,95187.09
2019-03-17T21:46:59.660Z,95185.06
2019-03-17T21:49:39.828Z,95185.41
2019-03-17T21:52:50.563Z,95192.57
2019-03-17T21:56:28.237Z,95197.09
2019-03-17T21:59:36.529Z,95195.81
2019-03-17T22:02:12.817Z,95202.42
2019-03-17T22:04:38.502Z,95202.98
2019-03-17T22:07:09.023Z,95205.72
2019-03-17T22:09:45.462Z,95209.02
2019-03-17T22:12:21.557Z,95219.42
2019-03-17T22:15:12.723Z,95216.32
2019-03-17T22:17:42.313Z,95231.20
2019-03-17T22:20:11.869Z,95229.73
2019-03-17T22:30:00.728Z,95238.18
2019-03-17T22:32:30.014Z,95250.94
2019-03-17T22:34:59.289Z,95251.84
2019-03-17T22:37:28.771Z,95245.73
2019-03-17T22:39:58.042Z,95254.39
2019-03-17T22:42:27.240Z,95256.68
2019-03-17T22:44:56.491Z,95263.47
2019-03-17T22:47:25.988Z,95275.14
2019-03-17T22:53:16.233Z,95267.80
2019-03-17T22:56:10.511Z,95280.23
2019-03-17T22:59:20.624Z,95275.41
2019-03-17T23:05:48.822Z,95263.14
2019-03-17T23:08:43.965Z,95268.48
2019-03-17T23:11:31.110Z,95293.78
2019-03-17T23:17:47.770Z,95257.39
2019-03-17T23:20:33.869Z,95269.94
2019-03-17T23:23:24.293Z,95260.08
2019-03-17T23:26:14.573Z,95267.76
2019-03-17T23:28:46.708Z,95272.48
2019-03-17T23:31:20.735Z,95273.15
2019-03-17T23:33:52.546Z,95274.02
2019-03-17T23:36:26.967Z,95270.55
2019-03-17T23:38:56.201Z,95271.08
2019-03-17T23:41:25.636Z,95283.33
2019-03-17T23:43:54.886Z,95286.05
2019-03-17T23:46:24.166Z,95283.95
2019-03-17T23:48:53.399Z,95287.47
2019-03-17T23:51:22.807Z,95291.13
2019-03-17T23:53:52.128Z,95287.00
2019-03-17T23:56:21.845Z,95303.72
2019-03-17T23:58:51.442Z,95294.45
